Flight Number: EUR1191 Duration: 3:00
Departure: Athens Int'l (LGAV) at 07:00 Distance: 1138 Nm
Arrival: Paris Charles-de-Gaulle (LFPG) at 10:00 Equipment: A330-200

Weather Information
Athens Eleftherios Venizelos International Airport, Greece (LGAV) 37-56N 023-56E May 24, 2018 - 05:20 PM EDT / 2018.05.24 2120 UTC
Wind: Variable at 3 MPH (3 KT):0
Visibility: greater than 7 mile(s):0
Sky conditions: mostly clear Temperature: 68 F (20 C) Dew Point: 57 F (14 C) Relative Humidity: 68% Pressure (altimeter): 29.88 in. Hg (1012 hPa)
ob: LGAV 242120Z VRB03KT 9999 FEW030 20/14 Q1012 NOSIG cycle: 21
Sunrise: 03:10 Sunset: 17:31 (UTC)

Paris-Aeroport Charles De Gaulle, France (LFPG) 49-01N 002-32E 109M May 24, 2018 - 05:30 PM EDT / 2018.05.24 2130 UTC
Wind: from the NE (050 degrees) at 3 MPH (3 KT) (direction variable):0
Visibility: greater than 7 mile(s):0 Temperature: 60 F (16 C) Dew Point: 53 F (12 C) Relative Humidity: 77% Pressure (altimeter): 30.03 in. Hg (1017 hPa)
ob: LFPG 242130Z 05003KT 020V080 CAVOK 16/12 Q1017 NOSIG cycle: 21
Sunrise: 04:00 Sunset: 19:32 (UTC)

TAF:2018/05/24 18:26 TAF LFPG 241700Z 2418/2524 31005KT CAVOK PROB30 TEMPO 2418/2420 SCT045TCU BECMG 2500/2502 3000 BR TEMPO 2503/2506 0600 BCFG BKN002 BECMG 2506/2508 04005KT 8000 NSW NSC BECMG 2511/2513 SCT040TCU TEMPO 2515/2520 4000 SHRA PROB40 TEMPO 2517/2519 29015G35KT 2000 TSRAGR SCT010 BKN030CB TX25/2515Z TN13/2503Z

Previous Pireps for this route
Date Aircraft Flight time Fuel used Landing rate On time
2013-10-25A330-2003.00263100No
2016-10-24A330-20003.1439805-150No
(pireps marked green are flown by you)

Route map